sensor_id;sensor_type;location;lat;lon;timestamp;pressure;altitude;pressure_sealevel;temperature;humidity
27864;BME280;15980;51.092;13.916;2023-04-07T00:05:24;98932.03;;;-0.61;73.85
27864;BME280;15980;51.092;13.916;2023-04-07T00:15:24;98935.22;;;-0.70;75.02
27864;BME280;15980;51.092;13.916;2023-04-07T00:25:25;98926.63;;;-0.67;75.66
27864;BME280;15980;51.092;13.916;2023-04-07T00:35:25;98915.06;;;-0.57;75.92
27864;BME280;15980;51.092;13.916;2023-04-07T00:45:25;98921.06;;;-0.45;75.26
27864;BME280;15980;51.092;13.916;2023-04-07T00:55:25;98907.91;;;-0.36;74.72
27864;BME280;15980;51.092;13.916;2023-04-07T01:05:46;98895.25;;;-0.36;74.67
27864;BME280;15980;51.092;13.916;2023-04-07T01:15:51;98885.28;;;-0.30;75.32
27864;BME280;15980;51.092;13.916;2023-04-07T01:26:03;98880.94;;;-0.41;75.25
27864;BME280;15980;51.092;13.916;2023-04-07T01:36:07;98865.75;;;-0.57;75.68
27864;BME280;15980;51.092;13.916;2023-04-07T01:46:08;98864.94;;;-0.58;76.66
27864;BME280;15980;51.092;13.916;2023-04-07T01:56:08;98863.84;;;-0.62;77.15
27864;BME280;15980;51.092;13.916;2023-04-07T02:06:11;98861.69;;;-0.65;77.32
27864;BME280;15980;51.092;13.916;2023-04-07T02:16:15;98851.72;;;-0.70;77.13
27864;BME280;15980;51.092;13.916;2023-04-07T02:26:16;98854.13;;;-0.73;77.49
27864;BME280;15980;51.092;13.916;2023-04-07T02:36:16;98845.25;;;-0.64;77.71
27864;BME280;15980;51.092;13.916;2023-04-07T02:46:16;98840.66;;;-0.68;78.00
27864;BME280;15980;51.092;13.916;2023-04-07T02:56:17;98842.59;;;-0.58;78.20
27864;BME280;15980;51.092;13.916;2023-04-07T03:06:17;98832.09;;;-0.55;78.88
27864;BME280;15980;51.092;13.916;2023-04-07T03:16:17;98821.84;;;-0.53;78.98
27864;BME280;15980;51.092;13.916;2023-04-07T03:26:17;98816.97;;;-0.61;78.09
27864;BME280;15980;51.092;13.916;2023-04-07T03:36:18;98812.66;;;-0.67;77.90
27864;BME280;15980;51.092;13.916;2023-04-07T03:46:19;98815.03;;;-0.76;79.09
27864;BME280;15980;51.092;13.916;2023-04-07T03:56:19;98813.66;;;-0.83;78.47
27864;BME280;15980;51.092;13.916;2023-04-07T04:06:19;98815.75;;;-0.96;78.86
27864;BME280;15980;51.092;13.916;2023-04-07T04:16:20;98819.75;;;-1.03;79.70
27864;BME280;15980;51.092;13.916;2023-04-07T04:26:20;98820.53;;;-1.13;79.92
27864;BME280;15980;51.092;13.916;2023-04-07T04:36:20;98828.84;;;-1.14;79.66
27864;BME280;15980;51.092;13.916;2023-04-07T04:46:21;98821.81;;;-1.20;80.27
27864;BME280;15980;51.092;13.916;2023-04-07T04:56:21;98807.38;;;-1.04;80.11
27864;BME280;15980;51.092;13.916;2023-04-07T05:06:21;98810.44;;;-0.80;79.91
27864;BME280;15980;51.092;13.916;2023-04-07T05:16:22;98815.41;;;-0.47;78.74
27864;BME280;15980;51.092;13.916;2023-04-07T05:26:22;98819.03;;;0.15;77.05
27864;BME280;15980;51.092;13.916;2023-04-07T05:36:22;98812.50;;;0.67;75.95
27864;BME280;15980;51.092;13.916;2023-04-07T05:46:23;98811.34;;;1.08;74.68
27864;BME280;15980;51.092;13.916;2023-04-07T05:56:23;98811.66;;;1.56;72.96
27864;BME280;15980;51.092;13.916;2023-04-07T06:06:24;98816.59;;;1.93;73.23
27864;BME280;15980;51.092;13.916;2023-04-07T06:16:25;98808.94;;;2.05;71.75
27864;BME280;15980;51.092;13.916;2023-04-07T06:26:25;98815.44;;;2.38;72.03
27864;BME280;15980;51.092;13.916;2023-04-07T06:36:26;98813.50;;;2.73;70.34
27864;BME280;15980;51.092;13.916;2023-04-07T06:46:26;98808.72;;;3.18;67.94
27864;BME280;15980;51.092;13.916;2023-04-07T06:56:26;98804.97;;;3.75;67.06
27864;BME280;15980;51.092;13.916;2023-04-07T07:06:27;98798.97;;;4.81;67.16
27864;BME280;15980;51.092;13.916;2023-04-07T07:16:27;98795.47;;;5.98;64.95
27864;BME280;15980;51.092;13.916;2023-04-07T07:26:27;98790.59;;;6.32;63.98
27864;BME280;15980;51.092;13.916;2023-04-07T07:36:27;98820.13;;;6.16;58.37
27864;BME280;15980;51.092;13.916;2023-04-07T07:46:28;98824.94;;;7.65;53.14
27864;BME280;15980;51.092;13.916;2023-04-07T07:56:28;98831.16;;;8.74;50.19
27864;BME280;15980;51.092;13.916;2023-04-07T08:06:28;98841.91;;;8.79;45.88
27864;BME280;15980;51.092;13.916;2023-04-07T08:16:29;98853.50;;;8.85;44.24
27864;BME280;15980;51.092;13.916;2023-04-07T08:26:29;98848.81;;;8.86;44.67
27864;BME280;15980;51.092;13.916;2023-04-07T08:36:29;98847.31;;;9.14;44.04
27864;BME280;15980;51.092;13.916;2023-04-07T08:46:30;98847.25;;;9.31;43.39
27864;BME280;15980;51.092;13.916;2023-04-07T08:56:32;98838.38;;;9.93;42.78
27864;BME280;15980;51.092;13.916;2023-04-07T09:06:34;98831.81;;;10.90;41.43
27864;BME280;15980;51.092;13.916;2023-04-07T09:16:34;98831.97;;;10.73;40.43
27864;BME280;15980;51.092;13.916;2023-04-07T09:26:35;98841.91;;;11.10;39.05
27864;BME280;15980;51.092;13.916;2023-04-07T09:36:40;98833.63;;;10.86;37.79
27864;BME280;15980;51.092;13.916;2023-04-07T09:46:54;98816.19;;;11.15;37.95
27864;BME280;15980;51.092;13.916;2023-04-07T09:56:55;98809.13;;;11.75;36.93
27864;BME280;15980;51.092;13.916;2023-04-07T10:06:57;98818.66;;;10.95;36.00
27864;BME280;15980;51.092;13.916;2023-04-07T10:16:59;98827.72;;;10.63;37.54
27864;BME280;15980;51.092;13.916;2023-04-07T10:27:03;98827.13;;;10.57;38.02
27864;BME280;15980;51.092;13.916;2023-04-07T10:37:12;98811.19;;;11.29;36.93
27864;BME280;15980;51.092;13.916;2023-04-07T10:47:13;98813.25;;;11.93;36.14
27864;BME280;15980;51.092;13.916;2023-04-07T10:57:14;98814.75;;;11.90;37.35
27864;BME280;15980;51.092;13.916;2023-04-07T11:07:14;98822.06;;;11.62;37.15
27864;BME280;15980;51.092;13.916;2023-04-07T11:17:15;98814.16;;;11.60;36.45
27864;BME280;15980;51.092;13.916;2023-04-07T11:27:15;98806.25;;;11.47;37.97
27864;BME280;15980;51.092;13.916;2023-04-07T11:37:23;98793.81;;;12.26;37.59
27864;BME280;15980;51.092;13.916;2023-04-07T11:47:37;98804.69;;;11.82;37.68
27864;BME280;15980;51.092;13.916;2023-04-07T11:57:38;98800.53;;;11.76;38.46
27864;BME280;15980;51.092;13.916;2023-04-07T12:07:39;98807.16;;;11.63;37.56
27864;BME280;15980;51.092;13.916;2023-04-07T12:17:44;98801.69;;;11.87;37.45
27864;BME280;15980;51.092;13.916;2023-04-07T12:27:45;98789.91;;;12.27;38.60
27864;BME280;15980;51.092;13.916;2023-04-07T12:37:45;98794.50;;;12.23;37.71
27864;BME280;15980;51.092;13.916;2023-04-07T12:47:45;98799.47;;;12.17;37.61
27864;BME280;15980;51.092;13.916;2023-04-07T12:57:45;98813.44;;;12.12;39.02
27864;BME280;15980;51.092;13.916;2023-04-07T13:07:46;98795.78;;;12.13;39.42
27864;BME280;15980;51.092;13.916;2023-04-07T13:17:46;98795.47;;;12.03;40.91
27864;BME280;15980;51.092;13.916;2023-04-07T13:27:46;98793.22;;;11.44;40.77
27864;BME280;15980;51.092;13.916;2023-04-07T13:37:47;98791.38;;;11.60;40.45
27864;BME280;15980;51.092;13.916;2023-04-07T13:47:47;98790.47;;;11.80;38.97
27864;BME280;15980;51.092;13.916;2023-04-07T13:57:47;98790.94;;;11.82;39.22
27864;BME280;15980;51.092;13.916;2023-04-07T14:07:47;98783.56;;;11.25;38.02
27864;BME280;15980;51.092;13.916;2023-04-07T14:17:48;98780.06;;;11.37;39.95
27864;BME280;15980;51.092;13.916;2023-04-07T14:27:48;98771.44;;;11.26;41.11
27864;BME280;15980;51.092;13.916;2023-04-07T14:37:48;98768.47;;;11.19;40.52
27864;BME280;15980;51.092;13.916;2023-04-07T14:47:48;98780.47;;;11.15;41.98
27864;BME280;15980;51.092;13.916;2023-04-07T14:57:49;98783.88;;;10.21;42.42
27864;BME280;15980;51.092;13.916;2023-04-07T15:07:49;98787.09;;;9.73;42.84
27864;BME280;15980;51.092;13.916;2023-04-07T15:17:49;98791.22;;;9.58;43.56
27864;BME280;15980;51.092;13.916;2023-04-07T15:27:50;98783.50;;;9.52;43.74
27864;BME280;15980;51.092;13.916;2023-04-07T15:37:50;98800.06;;;8.79;47.67
27864;BME280;15980;51.092;13.916;2023-04-07T15:47:51;98793.97;;;8.65;49.09
27864;BME280;15980;51.092;13.916;2023-04-07T15:57:52;98803.16;;;8.08;50.49
27864;BME280;15980;51.092;13.916;2023-04-07T16:07:52;98794.31;;;8.03;50.85
27864;BME280;15980;51.092;13.916;2023-04-07T16:17:53;98803.63;;;7.84;51.02
27864;BME280;15980;51.092;13.916;2023-04-07T16:27:53;98830.44;;;7.25;50.99
27864;BME280;15980;51.092;13.916;2023-04-07T16:37:53;98823.19;;;7.21;52.38
27864;BME280;15980;51.092;13.916;2023-04-07T16:47:53;98838.19;;;7.01;54.67
27864;BME280;15980;51.092;13.916;2023-04-07T16:57:54;98839.03;;;6.79;57.97
27864;BME280;15980;51.092;13.916;2023-04-07T17:07:54;98844.47;;;6.79;60.33
27864;BME280;15980;51.092;13.916;2023-04-07T17:17:54;98853.00;;;6.55;62.87
27864;BME280;15980;51.092;13.916;2023-04-07T17:27:55;98868.44;;;6.46;64.94
27864;BME280;15980;51.092;13.916;2023-04-07T17:37:55;98868.38;;;6.15;66.72
27864;BME280;15980;51.092;13.916;2023-04-07T17:47:55;98883.72;;;5.97;68.35
27864;BME280;15980;51.092;13.916;2023-04-07T17:57:55;98884.94;;;5.78;70.61
27864;BME280;15980;51.092;13.916;2023-04-07T18:07:56;98894.63;;;5.43;72.87
27864;BME280;15980;51.092;13.916;2023-04-07T18:17:56;98906.09;;;5.26;75.00
27864;BME280;15980;51.092;13.916;2023-04-07T18:27:56;98922.94;;;5.28;77.24
27864;BME280;15980;51.092;13.916;2023-04-07T18:37:57;98926.13;;;4.84;80.55
27864;BME280;15980;51.092;13.916;2023-04-07T18:47:57;98928.38;;;4.95;82.88
27864;BME280;15980;51.092;13.916;2023-04-07T18:57:57;98942.28;;;4.75;84.69
27864;BME280;15980;51.092;13.916;2023-04-07T19:07:57;98947.81;;;4.70;85.77
27864;BME280;15980;51.092;13.916;2023-04-07T19:17:59;98949.66;;;4.56;86.17
27864;BME280;15980;51.092;13.916;2023-04-07T19:28:00;98951.50;;;4.41;87.90
27864;BME280;15980;51.092;13.916;2023-04-07T19:38:00;98953.25;;;4.51;87.61
27864;BME280;15980;51.092;13.916;2023-04-07T19:48:00;98955.00;;;4.61;88.82
27864;BME280;15980;51.092;13.916;2023-04-07T19:58:01;98956.03;;;4.65;88.53
27864;BME280;15980;51.092;13.916;2023-04-07T20:08:01;98958.03;;;4.59;88.48
27864;BME280;15980;51.092;13.916;2023-04-07T20:18:01;98958.69;;;4.51;89.04
27864;BME280;15980;51.092;13.916;2023-04-07T20:28:02;98966.69;;;4.61;88.96
27864;BME280;15980;51.092;13.916;2023-04-07T20:38:02;98960.38;;;4.66;89.45
27864;BME280;15980;51.092;13.916;2023-04-07T20:48:02;98964.47;;;4.63;89.10
27864;BME280;15980;51.092;13.916;2023-04-07T20:58:03;98956.19;;;4.55;90.66
27864;BME280;15980;51.092;13.916;2023-04-07T21:08:03;98965.97;;;4.56;91.45
27864;BME280;15980;51.092;13.916;2023-04-07T21:18:03;98950.31;;;4.48;92.89
27864;BME280;15980;51.092;13.916;2023-04-07T21:28:04;98952.22;;;4.47;93.24
27864;BME280;15980;51.092;13.916;2023-04-07T21:38:04;98949.00;;;4.45;94.10
27864;BME280;15980;51.092;13.916;2023-04-07T21:48:04;98950.75;;;4.36;95.23
27864;BME280;15980;51.092;13.916;2023-04-07T21:58:05;98954.91;;;4.28;95.12
27864;BME280;15980;51.092;13.916;2023-04-07T22:08:05;98949.94;;;4.17;96.63
27864;BME280;15980;51.092;13.916;2023-04-07T22:18:05;98955.41;;;4.35;96.21
27864;BME280;15980;51.092;13.916;2023-04-07T22:28:06;98948.69;;;4.28;96.61
27864;BME280;15980;51.092;13.916;2023-04-07T22:38:06;98952.41;;;4.13;98.30
27864;BME280;15980;51.092;13.916;2023-04-07T22:48:06;98947.72;;;4.19;98.42
27864;BME280;15980;51.092;13.916;2023-04-07T22:58:07;98952.94;;;4.15;98.74
27864;BME280;15980;51.092;13.916;2023-04-07T23:08:07;98957.19;;;4.21;99.04
27864;BME280;15980;51.092;13.916;2023-04-07T23:18:07;98949.63;;;4.18;99.67
27864;BME280;15980;51.092;13.916;2023-04-07T23:28:08;98952.50;;;4.08;100.00
27864;BME280;15980;51.092;13.916;2023-04-07T23:38:08;98950.81;;;4.12;100.00
27864;BME280;15980;51.092;13.916;2023-04-07T23:48:08;98940.69;;;4.18;100.00
27864;BME280;15980;51.092;13.916;2023-04-07T23:58:08;98936.34;;;3.98;100.00
